sensor_id;sensor_type;location;lat;lon;timestamp;pressure;altitude;pressure_sealevel;temperature;humidity
37132;BME280;23035;50.032;21.978;2023-01-04T00:00:20;65515.44;;;3.33;100.00
37132;BME280;23035;50.032;21.978;2023-01-04T00:05:45;65485.94;;;3.00;100.00
37132;BME280;23035;50.032;21.978;2023-01-04T00:10:49;65562.59;;;3.70;100.00
37132;BME280;23035;50.032;21.978;2023-01-04T00:15:55;65550.09;;;3.66;100.00
37132;BME280;23035;50.032;21.978;2023-01-04T00:21:10;65580.22;;;3.87;100.00
37132;BME280;23035;50.032;21.978;2023-01-04T00:26:16;65509.50;;;3.25;100.00
37132;BME280;23035;50.032;21.978;2023-01-04T00:31:24;65496.59;;;3.10;100.00
37132;BME280;23035;50.032;21.978;2023-01-04T00:36:30;65481.56;;;2.93;100.00
37132;BME280;23035;50.032;21.978;2023-01-04T00:41:36;65449.16;;;2.65;100.00
37132;BME280;23035;50.032;21.978;2023-01-04T00:47:03;65443.81;;;2.59;100.00
37132;BME280;23035;50.032;21.978;2023-01-04T00:52:08;65437.63;;;2.58;100.00
37132;BME280;23035;50.032;21.978;2023-01-04T00:57:13;65412.41;;;2.29;100.00
37132;BME280;23035;50.032;21.978;2023-01-04T01:02:18;65415.69;;;2.35;100.00
37132;BME280;23035;50.032;21.978;2023-01-04T01:07:23;65413.47;;;2.30;100.00
37132;BME280;23035;50.032;21.978;2023-01-04T01:12:28;65523.88;;;3.38;100.00
37132;BME280;23035;50.032;21.978;2023-01-04T01:17:34;65487.97;;;2.99;100.00
37132;BME280;23035;50.032;21.978;2023-01-04T01:22:39;65536.75;;;3.53;100.00
37132;BME280;23035;50.032;21.978;2023-01-04T01:27:43;65570.25;;;3.83;100.00
37132;BME280;23035;50.032;21.978;2023-01-04T01:32:49;65542.53;;;3.56;100.00
37132;BME280;23035;50.032;21.978;2023-01-04T01:37:54;65479.00;;;2.93;100.00
37132;BME280;23035;50.032;21.978;2023-01-04T01:42:58;65442.31;;;2.61;100.00
37132;BME280;23035;50.032;21.978;2023-01-04T01:48:09;65432.63;;;2.49;100.00
37132;BME280;23035;50.032;21.978;2023-01-04T01:53:15;65481.66;;;2.96;100.00
37132;BME280;23035;50.032;21.978;2023-01-04T01:58:23;65469.41;;;2.84;100.00
37132;BME280;23035;50.032;21.978;2023-01-04T02:03:34;65479.53;;;2.94;100.00
37132;BME280;23035;50.032;21.978;2023-01-04T02:08:41;65459.81;;;2.75;100.00
37132;BME280;23035;50.032;21.978;2023-01-04T02:13:46;65352.31;;;1.75;100.00
37132;BME280;23035;50.032;21.978;2023-01-04T02:19:25;65340.06;;;1.63;100.00
37132;BME280;23035;50.032;21.978;2023-01-04T02:24:49;65357.66;;;1.80;100.00
37132;BME280;23035;50.032;21.978;2023-01-04T02:36:12;65495.00;;;3.08;100.00
37132;BME280;23035;50.032;21.978;2023-01-04T02:41:23;65399.09;;;2.17;100.00
37132;BME280;23035;50.032;21.978;2023-01-04T02:46:33;65367.34;;;1.91;100.00
37132;BME280;23035;50.032;21.978;2023-01-04T02:51:40;65360.84;;;1.83;100.00
37132;BME280;23035;50.032;21.978;2023-01-04T02:56:48;65491.16;;;3.02;100.00
37132;BME280;23035;50.032;21.978;2023-01-04T03:02:14;65467.03;;;2.89;100.00
37132;BME280;23035;50.032;21.978;2023-01-04T03:07:48;65381.94;;;1.98;100.00
37132;BME280;23035;50.032;21.978;2023-01-04T03:13:09;65366.06;;;1.85;100.00
37132;BME280;23035;50.032;21.978;2023-01-04T03:18:17;65201.63;;;0.28;100.00
37132;BME280;23035;50.032;21.978;2023-01-04T03:23:28;65159.97;;;-0.17;100.00
37132;BME280;23035;50.032;21.978;2023-01-04T03:28:52;65204.31;;;0.31;100.00
37132;BME280;23035;50.032;21.978;2023-01-04T03:34:14;65189.94;;;0.17;100.00
37132;BME280;23035;50.032;21.978;2023-01-04T03:39:46;65372.56;;;1.94;100.00
37132;BME280;23035;50.032;21.978;2023-01-04T03:45:17;65374.03;;;1.93;100.00
37132;BME280;23035;50.032;21.978;2023-01-04T03:50:43;65294.19;;;1.17;100.00
37132;BME280;23035;50.032;21.978;2023-01-04T03:55:50;65325.19;;;1.49;100.00
37132;BME280;23035;50.032;21.978;2023-01-04T04:00:56;65359.03;;;1.76;100.00
37132;BME280;23035;50.032;21.978;2023-01-04T04:06:07;65370.09;;;1.84;100.00
37132;BME280;23035;50.032;21.978;2023-01-04T04:11:31;65305.38;;;1.27;100.00
37132;BME280;23035;50.032;21.978;2023-01-04T04:16:35;65218.66;;;0.44;100.00
37132;BME280;23035;50.032;21.978;2023-01-04T04:21:40;65295.81;;;1.18;100.00
37132;BME280;23035;50.032;21.978;2023-01-04T04:26:46;65267.69;;;0.94;100.00
37132;BME280;23035;50.032;21.978;2023-01-04T04:31:51;65261.22;;;0.85;100.00
37132;BME280;23035;50.032;21.978;2023-01-04T04:36:55;65335.81;;;1.59;100.00
37132;BME280;23035;50.032;21.978;2023-01-04T04:42:01;65374.56;;;1.93;100.00
37132;BME280;23035;50.032;21.978;2023-01-04T04:47:05;65357.56;;;1.77;100.00
37132;BME280;23035;50.032;21.978;2023-01-04T04:52:10;65357.66;;;1.80;100.00
37132;BME280;23035;50.032;21.978;2023-01-04T04:57:15;65396.63;;;2.19;100.00
37132;BME280;23035;50.032;21.978;2023-01-04T05:02:19;65434.78;;;2.51;100.00
37132;BME280;23035;50.032;21.978;2023-01-04T05:07:24;65501.38;;;3.14;100.00
37132;BME280;23035;50.032;21.978;2023-01-04T05:12:30;65473.03;;;2.85;100.00
37132;BME280;23035;50.032;21.978;2023-01-04T05:17:59;65474.94;;;2.94;100.00
37132;BME280;23035;50.032;21.978;2023-01-04T05:23:04;65375.09;;;1.94;100.00
37132;BME280;23035;50.032;21.978;2023-01-04T05:28:10;65367.56;;;1.84;100.00
37132;BME280;23035;50.032;21.978;2023-01-04T05:33:15;65357.13;;;1.79;100.00
37132;BME280;23035;50.032;21.978;2023-01-04T05:38:21;65378.41;;;1.99;100.00
37132;BME280;23035;50.032;21.978;2023-01-04T05:43:26;65360.75;;;1.80;100.00
37132;BME280;23035;50.032;21.978;2023-01-04T05:48:31;65295.81;;;1.18;100.00
37132;BME280;23035;50.032;21.978;2023-01-04T05:53:35;65331.56;;;1.55;100.00
37132;BME280;23035;50.032;21.978;2023-01-04T05:58:41;65243.88;;;0.73;100.00
37132;BME280;23035;50.032;21.978;2023-01-04T06:03:45;65316.00;;;1.37;100.00
37132;BME280;23035;50.032;21.978;2023-01-04T06:08:49;65327.31;;;1.51;100.00
37132;BME280;23035;50.032;21.978;2023-01-04T06:13:55;65209.50;;;0.33;100.00
37132;BME280;23035;50.032;21.978;2023-01-04T06:19:00;65258.56;;;0.82;100.00
37132;BME280;23035;50.032;21.978;2023-01-04T06:24:05;65207.50;;;0.34;100.00
37132;BME280;23035;50.032;21.978;2023-01-04T06:29:11;65292.16;;;1.17;100.00
37132;BME280;23035;50.032;21.978;2023-01-04T06:34:17;65315.91;;;1.35;100.00
37132;BME280;23035;50.032;21.978;2023-01-04T06:39:29;65295.25;;;1.18;100.00
37132;BME280;23035;50.032;21.978;2023-01-04T06:44:35;65255.56;;;0.84;100.00
37132;BME280;23035;50.032;21.978;2023-01-04T06:49:39;65204.72;;;0.28;100.00
37132;BME280;23035;50.032;21.978;2023-01-04T06:54:44;65296.44;;;1.21;100.00
37132;BME280;23035;50.032;21.978;2023-01-04T06:59:51;65364.38;;;1.81;100.00
37132;BME280;23035;50.032;21.978;2023-01-04T07:04:55;65427.84;;;2.44;100.00
37132;BME280;23035;50.032;21.978;2023-01-04T07:10:00;65433.38;;;2.54;100.00
37132;BME280;23035;50.032;21.978;2023-01-04T07:15:13;65368.09;;;1.85;100.00
37132;BME280;23035;50.032;21.978;2023-01-04T07:20:37;65408.13;;;2.25;100.00
37132;BME280;23035;50.032;21.978;2023-01-04T07:25:42;65380.97;;;1.99;100.00
37132;BME280;23035;50.032;21.978;2023-01-04T07:30:48;65383.84;;;2.07;100.00
37132;BME280;23035;50.032;21.978;2023-01-04T07:35:52;65447.66;;;2.66;100.00
37132;BME280;23035;50.032;21.978;2023-01-04T07:40:57;65505.66;;;3.19;100.00
37132;BME280;23035;50.032;21.978;2023-01-04T07:46:03;65464.81;;;2.84;100.00
37132;BME280;23035;50.032;21.978;2023-01-04T07:51:08;65492.34;;;3.06;100.00
37132;BME280;23035;50.032;21.978;2023-01-04T07:56:12;65562.38;;;3.78;100.00
37132;BME280;23035;50.032;21.978;2023-01-04T08:01:22;65578.78;;;3.91;100.00
37132;BME280;23035;50.032;21.978;2023-01-04T08:06:27;65639.00;;;4.46;100.00
37132;BME280;23035;50.032;21.978;2023-01-04T08:11:34;65658.94;;;4.70;100.00
37132;BME280;23035;50.032;21.978;2023-01-04T08:16:41;65684.88;;;4.89;100.00
37132;BME280;23035;50.032;21.978;2023-01-04T08:21:47;65681.06;;;4.83;100.00
37132;BME280;23035;50.032;21.978;2023-01-04T08:26:52;65569.63;;;3.80;100.00
37132;BME280;23035;50.032;21.978;2023-01-04T08:31:58;65618.81;;;4.29;100.00
37132;BME280;23035;50.032;21.978;2023-01-04T08:37:02;65624.56;;;4.32;100.00
37132;BME280;23035;50.032;21.978;2023-01-04T08:42:07;65676.91;;;4.82;100.00
37132;BME280;23035;50.032;21.978;2023-01-04T08:47:28;65694.50;;;4.99;100.00
37132;BME280;23035;50.032;21.978;2023-01-04T08:52:34;65751.75;;;5.56;100.00
37132;BME280;23035;50.032;21.978;2023-01-04T08:57:38;65715.00;;;5.23;100.00
37132;BME280;23035;50.032;21.978;2023-01-04T09:02:45;65737.41;;;5.44;100.00
37132;BME280;23035;50.032;21.978;2023-01-04T09:07:50;65790.84;;;5.95;100.00
37132;BME280;23035;50.032;21.978;2023-01-04T09:12:55;65799.22;;;5.98;100.00
37132;BME280;23035;50.032;21.978;2023-01-04T09:18:02;65787.66;;;5.92;100.00
37132;BME280;23035;50.032;21.978;2023-01-04T09:23:27;65856.56;;;6.58;100.00
37132;BME280;23035;50.032;21.978;2023-01-04T09:28:32;65883.13;;;6.78;100.00
37132;BME280;23035;50.032;21.978;2023-01-04T09:33:38;65935.09;;;7.30;100.00
37132;BME280;23035;50.032;21.978;2023-01-04T09:39:02;65927.06;;;7.23;100.00
37132;BME280;23035;50.032;21.978;2023-01-04T09:44:14;65764.09;;;5.70;100.00
37132;BME280;23035;50.032;21.978;2023-01-04T09:49:25;65841.53;;;6.41;100.00
37132;BME280;23035;50.032;21.978;2023-01-04T09:54:35;65732.94;;;5.35;100.00
37132;BME280;23035;50.032;21.978;2023-01-04T09:59:43;65901.41;;;6.98;100.00
37132;BME280;23035;50.032;21.978;2023-01-04T10:04:50;65904.00;;;6.98;100.00
37132;BME280;23035;50.032;21.978;2023-01-04T10:09:56;65947.41;;;7.42;100.00
37132;BME280;23035;50.032;21.978;2023-01-04T10:15:10;65899.91;;;6.99;100.00
37132;BME280;23035;50.032;21.978;2023-01-04T10:26:13;65903.63;;;7.03;100.00
37132;BME280;23035;50.032;21.978;2023-01-04T10:31:18;65968.81;;;7.62;100.00
37132;BME280;23035;50.032;21.978;2023-01-04T10:36:45;66019.28;;;8.15;100.00
37132;BME280;23035;50.032;21.978;2023-01-04T10:41:53;66075.34;;;8.63;100.00
37132;BME280;23035;50.032;21.978;2023-01-04T10:47:06;65968.34;;;7.64;100.00
37132;BME280;23035;50.032;21.978;2023-01-04T10:52:18;65967.28;;;7.63;100.00
37132;BME280;23035;50.032;21.978;2023-01-04T10:57:29;66024.97;;;8.16;100.00
37132;BME280;23035;50.032;21.978;2023-01-04T11:02:39;66010.47;;;7.99;100.00
37132;BME280;23035;50.032;21.978;2023-01-04T11:07:51;65981.63;;;7.74;100.00
37132;BME280;23035;50.032;21.978;2023-01-04T11:12:57;65995.66;;;7.90;100.00
37132;BME280;23035;50.032;21.978;2023-01-04T11:18:03;65985.41;;;7.78;100.00
37132;BME280;23035;50.032;21.978;2023-01-04T11:23:13;65994.03;;;7.89;100.00
37132;BME280;23035;50.032;21.978;2023-01-04T11:28:21;65999.84;;;7.92;100.00
37132;BME280;23035;50.032;21.978;2023-01-04T11:33:28;66089.81;;;8.77;100.00
37132;BME280;23035;50.032;21.978;2023-01-04T11:38:33;66070.53;;;8.59;100.00
37132;BME280;23035;50.032;21.978;2023-01-04T11:43:38;66083.38;;;8.71;100.00
37132;BME280;23035;50.032;21.978;2023-01-04T11:48:44;66145.06;;;9.32;98.46
37132;BME280;23035;50.032;21.978;2023-01-04T11:54:01;66202.41;;;9.87;91.79
37132;BME280;23035;50.032;21.978;2023-01-04T11:59:14;66230.63;;;10.09;86.70
37132;BME280;23035;50.032;21.978;2023-01-04T12:04:27;66241.34;;;10.19;86.11
37132;BME280;23035;50.032;21.978;2023-01-04T12:09:39;66192.56;;;9.72;87.16
37132;BME280;23035;50.032;21.978;2023-01-04T12:14:44;66287.13;;;10.67;82.09
37132;BME280;23035;50.032;21.978;2023-01-04T12:19:52;66237.25;;;10.20;85.73
37132;BME280;23035;50.032;21.978;2023-01-04T12:24:58;66332.63;;;11.08;78.90
37132;BME280;23035;50.032;21.978;2023-01-04T12:30:05;66337.63;;;11.17;76.28
37132;BME280;23035;50.032;21.978;2023-01-04T12:40:54;66399.28;;;11.73;74.43
37132;BME280;23035;50.032;21.978;2023-01-04T12:52:39;66402.41;;;11.74;73.24
37132;BME280;23035;50.032;21.978;2023-01-04T12:58:38;66382.72;;;11.60;73.18
37132;BME280;23035;50.032;21.978;2023-01-04T13:04:27;66369.03;;;11.40;74.54
37132;BME280;23035;50.032;21.978;2023-01-04T13:09:32;66344.63;;;11.24;75.41
37132;BME280;23035;50.032;21.978;2023-01-04T13:14:40;66383.69;;;11.59;74.68
37132;BME280;23035;50.032;21.978;2023-01-04T13:19:47;66471.78;;;12.42;70.80
37132;BME280;23035;50.032;21.978;2023-01-04T13:24:52;66502.84;;;12.69;69.08
37132;BME280;23035;50.032;21.978;2023-01-04T13:30:01;66471.53;;;12.34;69.24
37132;BME280;23035;50.032;21.978;2023-01-04T13:35:10;66340.22;;;11.17;73.94
37132;BME280;23035;50.032;21.978;2023-01-04T13:40:22;66297.69;;;10.72;76.95
37132;BME280;23035;50.032;21.978;2023-01-04T13:45:48;66278.00;;;10.58;79.71
37132;BME280;23035;50.032;21.978;2023-01-04T13:51:00;66242.00;;;10.22;80.98
37132;BME280;23035;50.032;21.978;2023-01-04T13:56:13;66131.06;;;9.16;87.16
37132;BME280;23035;50.032;21.978;2023-01-04T14:01:23;66106.41;;;8.93;88.88
37132;BME280;23035;50.032;21.978;2023-01-04T14:06:32;66052.84;;;8.42;94.06
37132;BME280;23035;50.032;21.978;2023-01-04T14:11:41;65990.81;;;7.86;96.28
37132;BME280;23035;50.032;21.978;2023-01-04T14:17:16;65991.91;;;7.87;99.20
37132;BME280;23035;50.032;21.978;2023-01-04T14:22:36;65930.81;;;7.26;100.00
37132;BME280;23035;50.032;21.978;2023-01-04T14:27:41;65992.34;;;7.85;100.00
37132;BME280;23035;50.032;21.978;2023-01-04T14:32:53;65964.97;;;7.56;100.00
37132;BME280;23035;50.032;21.978;2023-01-04T14:38:02;65882.69;;;6.80;100.00
37132;BME280;23035;50.032;21.978;2023-01-04T14:43:31;65909.34;;;7.03;100.00
37132;BME280;23035;50.032;21.978;2023-01-04T14:48:37;65911.47;;;7.05;100.00
37132;BME280;23035;50.032;21.978;2023-01-04T14:53:42;65871.47;;;6.70;100.00
37132;BME280;23035;50.032;21.978;2023-01-04T14:58:46;65932.00;;;7.30;100.00
37132;BME280;23035;50.032;21.978;2023-01-04T15:03:52;65882.78;;;6.83;100.00
37132;BME280;23035;50.032;21.978;2023-01-04T15:08:57;65844.81;;;6.47;100.00
37132;BME280;23035;50.032;21.978;2023-01-04T15:14:01;65812.03;;;6.11;100.00
37132;BME280;23035;50.032;21.978;2023-01-04T15:19:07;65841.63;;;6.44;100.00
37132;BME280;23035;50.032;21.978;2023-01-04T15:24:11;65837.69;;;6.35;100.00
37132;BME280;23035;50.032;21.978;2023-01-04T15:29:16;65889.09;;;6.86;100.00
37132;BME280;23035;50.032;21.978;2023-01-04T15:34:22;65918.50;;;7.14;100.00
37132;BME280;23035;50.032;21.978;2023-01-04T15:39:26;65848.03;;;6.50;100.00
37132;BME280;23035;50.032;21.978;2023-01-04T15:44:31;65848.56;;;6.50;100.00
37132;BME280;23035;50.032;21.978;2023-01-04T15:49:36;65867.72;;;6.66;100.00
37132;BME280;23035;50.032;21.978;2023-01-04T15:54:40;65840.47;;;6.40;100.00
37132;BME280;23035;50.032;21.978;2023-01-04T15:59:45;65841.97;;;6.39;100.00
37132;BME280;23035;50.032;21.978;2023-01-04T16:04:52;65851.78;;;6.53;100.00
37132;BME280;23035;50.032;21.978;2023-01-04T16:09:56;65878.31;;;6.74;100.00
37132;BME280;23035;50.032;21.978;2023-01-04T16:15:00;65869.97;;;6.71;100.00
37132;BME280;23035;50.032;21.978;2023-01-04T16:20:07;65861.75;;;6.58;100.00
37132;BME280;23035;50.032;21.978;2023-01-04T16:25:13;65866.13;;;6.65;100.00
37132;BME280;23035;50.032;21.978;2023-01-04T16:30:17;65861.19;;;6.57;100.00
37132;BME280;23035;50.032;21.978;2023-01-04T16:35:32;65909.97;;;7.06;100.00
37132;BME280;23035;50.032;21.978;2023-01-04T16:40:37;65844.72;;;6.44;100.00
37132;BME280;23035;50.032;21.978;2023-01-04T16:45:41;65846.94;;;6.49;100.00
37132;BME280;23035;50.032;21.978;2023-01-04T16:50:47;65854.88;;;6.54;100.00
37132;BME280;23035;50.032;21.978;2023-01-04T16:55:52;65849.09;;;6.51;100.00
37132;BME280;23035;50.032;21.978;2023-01-04T17:01:05;65848.56;;;6.50;100.00
37132;BME280;23035;50.032;21.978;2023-01-04T17:06:13;65866.31;;;6.70;100.00
37132;BME280;23035;50.032;21.978;2023-01-04T17:11:20;65856.41;;;6.53;100.00
37132;BME280;23035;50.032;21.978;2023-01-04T17:16:44;65863.44;;;6.62;100.00
37132;BME280;23035;50.032;21.978;2023-01-04T17:21:54;65920.13;;;7.16;100.00
37132;BME280;23035;50.032;21.978;2023-01-04T17:26:58;65921.00;;;7.12;100.00
37132;BME280;23035;50.032;21.978;2023-01-04T17:32:03;65883.84;;;6.84;100.00
37132;BME280;23035;50.032;21.978;2023-01-04T17:37:09;65877.88;;;6.76;100.00
37132;BME280;23035;50.032;21.978;2023-01-04T17:42:13;65913.81;;;7.12;100.00
37132;BME280;23035;50.032;21.978;2023-01-04T17:47:17;65867.28;;;6.68;100.00
37132;BME280;23035;50.032;21.978;2023-01-04T17:52:24;65879.13;;;6.82;100.00
37132;BME280;23035;50.032;21.978;2023-01-04T17:57:33;65855.50;;;6.57;100.00
37132;BME280;23035;50.032;21.978;2023-01-04T18:02:37;65874.22;;;6.75;100.00
37132;BME280;23035;50.032;21.978;2023-01-04T18:07:43;65865.66;;;6.67;100.00
37132;BME280;23035;50.032;21.978;2023-01-04T18:12:48;65873.50;;;6.69;100.00
37132;BME280;23035;50.032;21.978;2023-01-04T18:17:52;65823.44;;;6.26;100.00
37132;BME280;23035;50.032;21.978;2023-01-04T18:22:58;65821.22;;;6.22;100.00
37132;BME280;23035;50.032;21.978;2023-01-04T18:28:03;65816.31;;;6.15;100.00
37132;BME280;23035;50.032;21.978;2023-01-04T18:33:07;65807.44;;;6.11;100.00
37132;BME280;23035;50.032;21.978;2023-01-04T18:38:13;65848.38;;;6.45;100.00
37132;BME280;23035;50.032;21.978;2023-01-04T18:43:17;65847.50;;;6.49;100.00
37132;BME280;23035;50.032;21.978;2023-01-04T18:48:21;65830.41;;;6.33;100.00
37132;BME280;23035;50.032;21.978;2023-01-04T18:53:27;65804.13;;;6.06;100.00
37132;BME280;23035;50.032;21.978;2023-01-04T18:58:32;65833.50;;;6.33;100.00
37132;BME280;23035;50.032;21.978;2023-01-04T19:03:39;65809.91;;;6.09;100.00
37132;BME280;23035;50.032;21.978;2023-01-04T19:08:45;65795.91;;;5.93;100.00
37132;BME280;23035;50.032;21.978;2023-01-04T19:13:58;65817.03;;;6.20;100.00
37132;BME280;23035;50.032;21.978;2023-01-04T19:19:02;65869.84;;;6.68;100.00
37132;BME280;23035;50.032;21.978;2023-01-04T19:24:08;65815.34;;;6.16;100.00
37132;BME280;23035;50.032;21.978;2023-01-04T19:29:12;65811.41;;;6.08;100.00
37132;BME280;23035;50.032;21.978;2023-01-04T19:34:16;65818.53;;;6.19;100.00
37132;BME280;23035;50.032;21.978;2023-01-04T19:39:22;65816.50;;;6.20;100.00
37132;BME280;23035;50.032;21.978;2023-01-04T19:44:27;65824.97;;;6.25;100.00
37132;BME280;23035;50.032;21.978;2023-01-04T19:49:31;65782.94;;;5.90;100.00
37132;BME280;23035;50.032;21.978;2023-01-04T19:54:37;65804.19;;;6.08;100.00
37132;BME280;23035;50.032;21.978;2023-01-04T19:59:41;65823.81;;;6.22;100.00
37132;BME280;23035;50.032;21.978;2023-01-04T20:04:45;65822.91;;;6.26;100.00
37132;BME280;23035;50.032;21.978;2023-01-04T20:09:51;65806.25;;;6.08;100.00
37132;BME280;23035;50.032;21.978;2023-01-04T20:14:55;65853.28;;;6.52;100.00
37132;BME280;23035;50.032;21.978;2023-01-04T20:20:00;65876.81;;;6.75;100.00
37132;BME280;23035;50.032;21.978;2023-01-04T20:25:06;65897.56;;;6.92;100.00
37132;BME280;23035;50.032;21.978;2023-01-04T20:30:11;65825.56;;;6.28;100.00
37132;BME280;23035;50.032;21.978;2023-01-04T20:35:16;65834.66;;;6.37;100.00
37132;BME280;23035;50.032;21.978;2023-01-04T20:40:23;65813.72;;;6.15;100.00
37132;BME280;23035;50.032;21.978;2023-01-04T20:45:28;65822.47;;;6.28;100.00
37132;BME280;23035;50.032;21.978;2023-01-04T20:50:33;65816.31;;;6.15;100.00
37132;BME280;23035;50.032;21.978;2023-01-04T20:55:39;65820.16;;;6.21;100.00
37132;BME280;23035;50.032;21.978;2023-01-04T21:00:44;65812.22;;;6.16;100.00
37132;BME280;23035;50.032;21.978;2023-01-04T21:05:49;65858.72;;;6.60;100.00
37132;BME280;23035;50.032;21.978;2023-01-04T21:10:55;65836.63;;;6.34;100.00
37132;BME280;23035;50.032;21.978;2023-01-04T21:16:00;65802.50;;;6.04;100.00
37132;BME280;23035;50.032;21.978;2023-01-04T21:21:06;65791.91;;;5.96;100.00
37132;BME280;23035;50.032;21.978;2023-01-04T21:26:13;65837.16;;;6.35;100.00
37132;BME280;23035;50.032;21.978;2023-01-04T21:31:20;65794.50;;;5.96;100.00
37132;BME280;23035;50.032;21.978;2023-01-04T21:36:26;65856.50;;;6.55;100.00
37132;BME280;23035;50.032;21.978;2023-01-04T21:41:32;65883.22;;;6.81;100.00
37132;BME280;23035;50.032;21.978;2023-01-04T21:46:37;65894.53;;;6.94;100.00
37132;BME280;23035;50.032;21.978;2023-01-04T21:51:41;65811.06;;;6.12;100.00
37132;BME280;23035;50.032;21.978;2023-01-04T21:56:47;65790.53;;;5.88;100.00
37132;BME280;23035;50.032;21.978;2023-01-04T22:01:51;65767.13;;;5.68;100.00
37132;BME280;23035;50.032;21.978;2023-01-04T22:06:56;65758.59;;;5.60;100.00
37132;BME280;23035;50.032;21.978;2023-01-04T22:12:02;65778.25;;;5.76;100.00
37132;BME280;23035;50.032;21.978;2023-01-04T22:17:07;65774.16;;;5.77;100.00
37132;BME280;23035;50.032;21.978;2023-01-04T22:22:11;65803.50;;;6.02;100.00
37132;BME280;23035;50.032;21.978;2023-01-04T22:27:17;65835.09;;;6.35;100.00
37132;BME280;23035;50.032;21.978;2023-01-04T22:32:21;65790.31;;;5.95;100.00
37132;BME280;23035;50.032;21.978;2023-01-04T22:37:25;65813.28;;;6.17;100.00
37132;BME280;23035;50.032;21.978;2023-01-04T22:42:31;65830.72;;;6.28;100.00
37132;BME280;23035;50.032;21.978;2023-01-04T22:47:35;65858.19;;;6.59;100.00
37132;BME280;23035;50.032;21.978;2023-01-04T22:52:39;65853.28;;;6.52;100.00
37132;BME280;23035;50.032;21.978;2023-01-04T22:57:53;65857.56;;;6.56;100.00
37132;BME280;23035;50.032;21.978;2023-01-04T23:02:58;65860.34;;;6.61;100.00
37132;BME280;23035;50.032;21.978;2023-01-04T23:08:04;65899.16;;;6.94;100.00
37132;BME280;23035;50.032;21.978;2023-01-04T23:13:10;65896.50;;;6.91;100.00
37132;BME280;23035;50.032;21.978;2023-01-04T23:18:14;65903.09;;;7.02;100.00
37132;BME280;23035;50.032;21.978;2023-01-04T23:23:19;65851.69;;;6.51;100.00
37132;BME280;23035;50.032;21.978;2023-01-04T23:28:24;65819.44;;;6.15;100.00
37132;BME280;23035;50.032;21.978;2023-01-04T23:33:29;65749.69;;;5.56;100.00
37132;BME280;23035;50.032;21.978;2023-01-04T23:38:38;65780.06;;;5.83;100.00
37132;BME280;23035;50.032;21.978;2023-01-04T23:43:45;65825.56;;;6.28;100.00
37132;BME280;23035;50.032;21.978;2023-01-04T23:48:49;65828.16;;;6.28;100.00
37132;BME280;23035;50.032;21.978;2023-01-04T23:53:53;65829.25;;;6.29;100.00
37132;BME280;23035;50.032;21.978;2023-01-04T23:58:59;65802.59;;;6.07;100.00
